createdAt,value
2023-10-23T00:00:58.033Z,15.40
2023-10-23T00:06:15.240Z,14.80
2023-10-23T00:11:29.142Z,12.60
2023-10-23T00:16:33.171Z,12.90
2023-10-23T00:21:36.159Z,11.10
2023-10-23T00:26:40.241Z,11.40
2023-10-23T00:31:43.294Z,10.70
2023-10-23T00:36:46.250Z,10.10
2023-10-23T00:41:49.135Z,10.50
2023-10-23T00:46:52.041Z,10.40
2023-10-23T00:51:55.852Z,10.90
2023-10-23T00:56:58.988Z,12.10
2023-10-23T01:02:02.670Z,11.60
2023-10-23T01:07:05.670Z,11.30
2023-10-23T01:12:08.662Z,11.90
2023-10-23T01:17:11.589Z,12.20
2023-10-23T01:22:14.576Z,13.90
2023-10-23T01:27:18.231Z,15.60
2023-10-23T01:32:21.125Z,16.40
2023-10-23T01:37:24.474Z,17.50
2023-10-23T01:42:30.092Z,17.90
2023-10-23T01:47:33.109Z,18.50
2023-10-23T01:52:36.408Z,18.30
2023-10-23T01:57:39.743Z,16.30
2023-10-23T02:02:42.867Z,16.50
2023-10-23T02:07:45.999Z,15.80
2023-10-23T02:12:49.039Z,14.60
2023-10-23T02:17:54.609Z,14.40
2023-10-23T02:22:57.759Z,14.20
2023-10-23T02:28:00.793Z,14.20
2023-10-23T02:33:03.834Z,13.20
2023-10-23T02:38:06.936Z,14.60
2023-10-23T02:43:09.819Z,15.70
2023-10-23T02:48:14.000Z,15.80
2023-10-23T02:53:16.860Z,15.00
2023-10-23T02:58:20.048Z,14.40
2023-10-23T03:03:23.038Z,16.10
2023-10-23T03:08:26.686Z,15.50
2023-10-23T03:13:29.604Z,15.00
2023-10-23T03:18:32.540Z,13.00
2023-10-23T03:23:36.980Z,13.60
2023-10-23T03:28:40.151Z,13.00
2023-10-23T03:33:43.763Z,12.00
2023-10-23T03:38:46.746Z,14.50
2023-10-23T03:43:49.577Z,14.20
2023-10-23T03:48:53.578Z,14.00
2023-10-23T03:53:56.686Z,15.30
2023-10-23T03:59:01.109Z,14.50
2023-10-23T04:04:04.536Z,17.10
2023-10-23T04:09:08.239Z,16.30
2023-10-23T04:14:11.219Z,17.20
2023-10-23T04:19:14.206Z,18.10
2023-10-23T04:24:17.173Z,18.80
2023-10-23T04:29:20.130Z,18.30
2023-10-23T04:34:22.976Z,18.50
2023-10-23T04:39:25.885Z,19.70
2023-10-23T04:44:28.817Z,20.70
2023-10-23T04:49:31.763Z,20.30
2023-10-23T04:54:35.716Z,20.60
2023-10-23T04:59:38.966Z,20.60
2023-10-23T05:04:42.291Z,19.70
2023-10-23T05:09:45.422Z,18.40
2023-10-23T05:14:48.416Z,19.50
2023-10-23T05:19:51.340Z,19.30
2023-10-23T05:24:54.268Z,18.40
2023-10-23T05:29:57.169Z,18.60
2023-10-23T05:35:00.341Z,19.10
2023-10-23T05:40:06.030Z,19.50
2023-10-23T05:45:10.605Z,19.20
2023-10-23T05:50:13.661Z,20.50
2023-10-23T05:55:16.819Z,20.30
2023-10-23T06:00:19.911Z,21.50
2023-10-23T06:05:22.793Z,22.30
2023-10-23T06:10:25.750Z,22.40
2023-10-23T06:15:28.742Z,22.80
2023-10-23T06:20:33.313Z,22.50
2023-10-23T06:25:36.327Z,24.70
2023-10-23T06:30:39.268Z,24.20
2023-10-23T06:35:42.195Z,23.10
2023-10-23T06:40:45.196Z,24.80
2023-10-23T06:51:00.718Z,24.60
2023-10-23T06:56:03.913Z,23.90
2023-10-23T07:01:09.088Z,24.70
2023-10-23T07:06:13.005Z,23.00
2023-10-23T07:11:17.408Z,22.10
2023-10-23T07:16:21.276Z,23.70
2023-10-23T07:21:27.417Z,22.70
2023-10-23T07:26:30.598Z,21.60
2023-10-23T07:31:33.574Z,21.20
2023-10-23T07:36:38.721Z,20.10
2023-10-23T07:41:41.696Z,20.20
2023-10-23T07:46:45.416Z,20.20
2023-10-23T07:51:48.699Z,19.80
2023-10-23T07:56:51.649Z,18.10
2023-10-23T08:01:54.756Z,19.10
2023-10-23T08:06:57.989Z,18.20
2023-10-23T08:12:01.109Z,19.00
2023-10-23T08:17:04.949Z,20.70
2023-10-23T08:22:08.125Z,20.20
2023-10-23T08:27:11.118Z,23.40
2023-10-23T08:32:17.185Z,22.90
2023-10-23T08:37:21.576Z,22.50
2023-10-23T08:42:25.045Z,22.30
2023-10-23T08:47:27.932Z,22.50
2023-10-23T08:52:36.245Z,21.00
2023-10-23T09:02:51.692Z,19.80
2023-10-23T09:07:55.728Z,21.00
2023-10-23T09:12:58.667Z,22.40
2023-10-23T09:18:03.628Z,20.70
2023-10-23T09:23:06.828Z,20.40
2023-10-23T09:28:13.833Z,20.50
2023-10-23T09:33:17.656Z,19.90
2023-10-23T09:38:22.126Z,18.40
2023-10-23T09:43:27.506Z,17.20
2023-10-23T09:48:31.618Z,16.10
2023-10-23T09:53:34.473Z,14.50
2023-10-23T09:58:37.323Z,12.90
2023-10-23T10:03:41.293Z,13.10
2023-10-23T10:08:49.793Z,14.00
2023-10-23T10:13:52.818Z,14.90
2023-10-23T10:18:55.680Z,14.80
2023-10-23T10:24:00.309Z,15.20
2023-10-23T10:29:04.334Z,15.30
2023-10-23T10:34:26.934Z,14.80
2023-10-23T10:39:53.629Z,14.70
2023-10-23T10:45:01.594Z,13.80
2023-10-23T10:50:05.483Z,13.80
2023-10-23T10:55:13.426Z,14.10
2023-10-23T11:00:17.160Z,14.00
2023-10-23T11:05:20.244Z,13.30
2023-10-23T11:10:23.342Z,13.20
2023-10-23T11:15:27.208Z,12.60
2023-10-23T11:20:32.595Z,12.90
2023-10-23T11:25:37.432Z,13.30
2023-10-23T11:30:48.670Z,13.50
2023-10-23T11:35:53.645Z,12.50
2023-10-23T11:40:57.799Z,12.80
2023-10-23T11:46:00.968Z,11.90
2023-10-23T11:51:05.779Z,11.60
2023-10-23T11:56:09.153Z,11.20
2023-10-23T12:01:12.209Z,11.20
2023-10-23T12:06:15.276Z,10.50
2023-10-23T12:11:18.918Z,10.50
2023-10-23T12:16:21.987Z,9.30
2023-10-23T12:21:26.543Z,9.00
2023-10-23T12:26:29.988Z,8.00
2023-10-23T12:31:33.199Z,7.80
2023-10-23T12:36:55.903Z,7.10
2023-10-23T12:41:58.955Z,6.90
2023-10-23T12:47:01.992Z,15.10
2023-10-23T12:52:06.033Z,8.00
2023-10-23T12:57:09.184Z,5.70
2023-10-23T13:02:12.226Z,5.90
2023-10-23T13:07:15.295Z,5.70
2023-10-23T13:12:18.490Z,5.90
2023-10-23T13:17:21.444Z,6.20
2023-10-23T13:22:24.938Z,5.80
2023-10-23T13:27:27.880Z,5.50
2023-10-23T13:32:30.871Z,5.00
2023-10-23T13:37:34.163Z,4.50
2023-10-23T13:42:37.047Z,5.10
2023-10-23T13:47:40.092Z,4.80
2023-10-23T13:52:43.144Z,5.10
2023-10-23T13:57:46.171Z,5.60
2023-10-23T14:02:49.282Z,5.00
2023-10-23T14:07:52.999Z,5.00
2023-10-23T14:12:56.081Z,5.30
2023-10-23T14:17:59.093Z,6.90
2023-10-23T14:23:02.031Z,5.50
2023-10-23T14:28:05.691Z,5.50
2023-10-23T14:33:08.889Z,5.40
2023-10-23T14:38:12.745Z,5.60
2023-10-23T14:43:15.737Z,5.30
2023-10-23T14:48:20.723Z,5.70
2023-10-23T14:53:27.470Z,5.40
2023-10-23T14:58:30.938Z,5.60
2023-10-23T15:03:42.601Z,6.30
2023-10-23T15:08:46.656Z,5.30
2023-10-23T15:13:50.590Z,6.10
2023-10-23T15:18:54.297Z,5.50
2023-10-23T15:23:58.144Z,5.80
2023-10-23T15:29:01.131Z,6.80
2023-10-23T15:34:04.584Z,6.70
2023-10-23T15:39:09.734Z,5.80
2023-10-23T15:44:13.969Z,7.00
2023-10-23T15:49:17.225Z,6.10
2023-10-23T15:54:20.326Z,7.20
2023-10-23T15:59:23.214Z,6.80
2023-10-23T16:04:26.188Z,6.50
2023-10-23T16:09:29.216Z,7.70
2023-10-23T16:14:36.787Z,7.80
2023-10-23T16:19:49.306Z,10.20
2023-10-23T16:24:52.274Z,9.90
2023-10-23T16:29:55.428Z,9.80
2023-10-23T16:34:59.037Z,11.10
2023-10-23T16:40:01.963Z,10.90
2023-10-23T16:45:06.277Z,13.00
2023-10-23T16:50:10.234Z,11.70
2023-10-23T16:55:13.290Z,12.30
2023-10-23T17:00:16.525Z,16.00
2023-10-23T17:05:19.436Z,17.90
2023-10-23T17:10:22.489Z,17.80
2023-10-23T17:15:25.430Z,17.60
2023-10-23T17:20:28.360Z,20.20
2023-10-23T17:25:31.238Z,18.30
2023-10-23T17:30:34.249Z,20.50
2023-10-23T17:35:39.338Z,20.70
2023-10-23T17:40:42.297Z,23.00
2023-10-23T17:45:45.231Z,23.10
2023-10-23T17:50:48.046Z,21.70
2023-10-23T17:55:50.953Z,19.50
2023-10-23T18:00:53.892Z,18.60
2023-10-23T18:06:00.397Z,18.70
2023-10-23T18:11:11.410Z,19.80
2023-10-23T18:16:15.143Z,28.00
2023-10-23T18:21:19.533Z,26.80
2023-10-23T18:26:22.942Z,26.90
2023-10-23T18:31:26.697Z,26.80
2023-10-23T18:36:32.850Z,25.70
2023-10-23T18:41:35.781Z,27.30
2023-10-23T18:46:39.194Z,29.30
2023-10-23T18:51:42.329Z,28.40
2023-10-23T18:56:46.633Z,27.70
2023-10-23T19:01:50.520Z,27.10
2023-10-23T19:06:53.472Z,27.30
2023-10-23T19:11:57.200Z,27.90
2023-10-23T19:17:04.707Z,29.70
2023-10-23T19:22:08.242Z,29.90
2023-10-23T19:27:12.283Z,29.80
2023-10-23T19:32:16.053Z,29.20
2023-10-23T19:37:19.776Z,29.20
2023-10-23T19:42:24.986Z,28.60
2023-10-23T19:47:28.457Z,28.20
2023-10-23T19:52:37.291Z,28.80
2023-10-23T19:57:40.455Z,28.10
2023-10-23T20:02:43.658Z,29.00
2023-10-23T20:07:46.602Z,28.70
2023-10-23T20:12:51.205Z,27.70
2023-10-23T20:17:56.095Z,29.10
2023-10-23T20:22:59.100Z,30.80
2023-10-23T20:28:03.955Z,29.40
2023-10-23T20:33:08.638Z,32.50
2023-10-23T20:38:11.668Z,36.30
2023-10-23T20:43:14.612Z,34.30
2023-10-23T20:48:17.556Z,32.80
2023-10-23T20:53:20.406Z,34.40
2023-10-23T20:58:24.265Z,37.20
2023-10-23T21:03:27.236Z,38.10
2023-10-23T21:08:30.322Z,38.90
2023-10-23T21:13:33.297Z,40.60
2023-10-23T21:18:36.368Z,41.20
2023-10-23T21:23:39.403Z,35.90
2023-10-23T21:28:47.645Z,36.20
2023-10-23T21:33:50.735Z,40.70
2023-10-23T21:38:53.578Z,40.00
2023-10-23T21:43:56.482Z,38.80
2023-10-23T21:49:03.744Z,39.10
2023-10-23T21:54:07.450Z,39.30
2023-10-23T21:59:13.490Z,38.50
2023-10-23T22:04:16.960Z,39.00
2023-10-23T22:09:20.287Z,38.90
2023-10-23T22:14:23.621Z,36.50
2023-10-23T22:19:26.651Z,32.80
2023-10-23T22:24:29.702Z,31.60
2023-10-23T22:29:32.785Z,30.70
2023-10-23T22:34:35.879Z,30.40
2023-10-23T22:39:38.988Z,29.80
2023-10-23T22:44:42.099Z,30.30
2023-10-23T22:49:45.810Z,31.00
2023-10-23T22:54:48.995Z,30.50
2023-10-23T22:59:52.788Z,33.60
2023-10-23T23:04:55.984Z,35.10
2023-10-23T23:09:59.229Z,33.10
2023-10-23T23:15:02.892Z,39.90
2023-10-23T23:20:08.464Z,43.90
2023-10-23T23:25:11.355Z,43.00
2023-10-23T23:30:14.720Z,44.20
2023-10-23T23:35:17.651Z,44.20
2023-10-23T23:40:20.665Z,42.90
2023-10-23T23:45:23.576Z,43.20
2023-10-23T23:50:26.547Z,42.20
2023-10-23T23:55:29.641Z,40.00
